createdAt,value
2022-11-24T00:01:17.774Z,16.00
2022-11-24T00:03:46.366Z,16.60
2022-11-24T00:06:15.092Z,16.63
2022-11-24T00:08:44.284Z,16.80
2022-11-24T00:11:17.149Z,16.07
2022-11-24T00:13:44.836Z,16.37
2022-11-24T00:16:17.058Z,15.77
2022-11-24T00:18:48.732Z,14.93
2022-11-24T00:21:18.029Z,16.27
2022-11-24T00:23:48.908Z,15.43
2022-11-24T00:26:19.094Z,15.63
2022-11-24T00:28:47.889Z,15.93
2022-11-24T00:31:32.189Z,16.80
2022-11-24T00:34:01.536Z,16.43
2022-11-24T00:36:30.713Z,15.40
2022-11-24T00:39:00.082Z,15.80
2022-11-24T00:41:27.929Z,15.87
2022-11-24T00:43:55.552Z,15.60
2022-11-24T00:46:23.432Z,14.73
2022-11-24T00:48:51.043Z,15.67
2022-11-24T00:51:19.514Z,14.53
2022-11-24T00:53:46.366Z,15.77
2022-11-24T00:56:13.280Z,15.77
2022-11-24T00:58:40.551Z,15.60
2022-11-24T01:01:10.935Z,15.10
2022-11-24T01:03:37.928Z,15.23
2022-11-24T01:06:13.653Z,14.70
2022-11-24T01:08:41.737Z,15.33
2022-11-24T01:11:17.648Z,14.57
2022-11-24T01:13:47.239Z,14.13
2022-11-24T01:16:27.739Z,15.03
2022-11-24T01:18:54.791Z,14.10
2022-11-24T01:21:22.295Z,14.70
2022-11-24T01:23:49.245Z,14.70
2022-11-24T01:26:19.173Z,14.83
2022-11-24T01:28:47.696Z,15.10
2022-11-24T01:31:16.192Z,15.37
2022-11-24T01:33:43.267Z,14.93
2022-11-24T01:36:10.266Z,15.40
2022-11-24T01:38:37.163Z,15.27
2022-11-24T01:41:12.873Z,15.03
2022-11-24T01:43:40.956Z,16.00
2022-11-24T01:46:32.315Z,15.83
2022-11-24T01:49:22.658Z,15.83
2022-11-24T01:52:01.203Z,15.97
2022-11-24T01:54:30.071Z,17.33
2022-11-24T01:57:02.510Z,16.53
2022-11-24T01:59:32.550Z,16.27
2022-11-24T02:01:59.579Z,17.47
2022-11-24T02:04:30.457Z,17.40
2022-11-24T02:06:59.981Z,17.83
2022-11-24T02:09:42.963Z,16.60
2022-11-24T02:12:10.340Z,15.50
2022-11-24T02:14:39.521Z,15.97
2022-11-24T02:17:07.394Z,16.70
2022-11-24T02:19:40.336Z,15.47
2022-11-24T02:22:44.735Z,15.73
2022-11-24T02:25:39.703Z,14.87
2022-11-24T02:28:12.202Z,14.90
2022-11-24T02:30:41.040Z,13.57
2022-11-24T02:33:08.271Z,13.37
2022-11-24T02:35:35.244Z,13.00
2022-11-24T02:38:02.087Z,12.13
2022-11-24T02:40:31.084Z,11.67
2022-11-24T02:43:06.813Z,12.90
2022-11-24T02:45:33.820Z,11.67
2022-11-24T02:48:00.858Z,12.03
2022-11-24T02:50:27.796Z,11.67
2022-11-24T02:52:54.656Z,11.27
2022-11-24T02:55:21.610Z,11.20
2022-11-24T02:57:48.499Z,11.93
2022-11-24T03:00:16.384Z,10.53
2022-11-24T03:02:43.372Z,11.00
2022-11-24T03:05:12.088Z,11.03
2022-11-24T03:07:39.089Z,10.40
2022-11-24T03:10:06.785Z,11.20
2022-11-24T03:12:33.677Z,11.07
2022-11-24T03:15:00.642Z,11.10
2022-11-24T03:17:27.533Z,11.30
2022-11-24T03:19:54.477Z,11.23
2022-11-24T03:22:23.775Z,10.40
2022-11-24T03:24:50.669Z,11.20
2022-11-24T03:27:17.636Z,11.07
2022-11-24T03:29:44.507Z,11.17
2022-11-24T03:32:11.314Z,10.80
2022-11-24T03:34:38.162Z,10.33
2022-11-24T03:37:05.104Z,10.77
2022-11-24T03:39:32.004Z,10.43
2022-11-24T03:41:58.826Z,10.60
2022-11-24T03:44:25.753Z,10.43
2022-11-24T03:46:52.666Z,9.97
2022-11-24T03:49:21.632Z,10.03
2022-11-24T03:51:48.575Z,10.03
2022-11-24T03:54:15.610Z,9.40
2022-11-24T03:56:42.848Z,10.43
2022-11-24T03:59:09.660Z,9.53
2022-11-24T04:01:36.553Z,11.37
2022-11-24T04:04:03.530Z,10.40
2022-11-24T04:06:30.517Z,10.67
2022-11-24T04:08:57.502Z,10.60
2022-11-24T04:11:57.687Z,9.90
2022-11-24T04:14:24.524Z,11.10
2022-11-24T04:16:51.362Z,10.20
2022-11-24T04:19:18.186Z,10.77
2022-11-24T04:21:45.031Z,9.93
2022-11-24T04:24:12.035Z,11.33
2022-11-24T04:26:38.918Z,10.37
2022-11-24T04:29:05.918Z,10.77
2022-11-24T04:31:35.455Z,10.07
2022-11-24T04:34:02.336Z,10.10
2022-11-24T04:36:29.176Z,9.63
2022-11-24T04:39:23.290Z,10.20
2022-11-24T04:41:43.049Z,11.50
2022-11-24T04:44:09.947Z,10.27
2022-11-24T04:46:37.077Z,10.30
2022-11-24T04:49:04.034Z,10.03
2022-11-24T04:51:30.924Z,11.33
2022-11-24T04:53:57.848Z,11.00
2022-11-24T04:56:24.793Z,10.27
2022-11-24T04:58:51.700Z,10.30
2022-11-24T05:01:18.576Z,10.03
2022-11-24T05:03:45.547Z,10.27
2022-11-24T05:06:12.469Z,10.17
2022-11-24T05:08:39.290Z,9.57
2022-11-24T05:11:07.145Z,10.20
2022-11-24T05:13:34.087Z,10.10
2022-11-24T05:16:01.738Z,10.60
2022-11-24T05:18:28.964Z,11.00
2022-11-24T05:20:56.218Z,10.70
2022-11-24T05:23:23.031Z,9.90
2022-11-24T05:25:49.840Z,10.17
2022-11-24T05:28:16.915Z,9.60
2022-11-24T05:30:44.146Z,10.17
2022-11-24T05:33:23.139Z,9.43
2022-11-24T05:35:50.697Z,9.20
2022-11-24T05:38:18.534Z,9.27
2022-11-24T05:40:45.788Z,10.10
2022-11-24T05:43:17.462Z,10.30
2022-11-24T05:45:44.965Z,9.27
2022-11-24T05:48:14.578Z,10.33
2022-11-24T05:50:41.391Z,9.93
2022-11-24T05:53:11.072Z,9.97
2022-11-24T05:55:38.263Z,9.50
2022-11-24T05:58:09.515Z,10.27
2022-11-24T06:00:36.979Z,9.73
2022-11-24T06:03:04.042Z,9.83
2022-11-24T06:05:31.231Z,9.23
2022-11-24T06:08:00.291Z,9.53
2022-11-24T06:10:27.499Z,9.57
2022-11-24T06:12:54.325Z,9.60
2022-11-24T06:15:21.659Z,9.37
2022-11-24T06:17:56.835Z,9.70
2022-11-24T06:20:32.471Z,9.27
2022-11-24T06:23:00.117Z,9.87
2022-11-24T06:25:27.792Z,9.73
2022-11-24T06:27:54.979Z,9.50
2022-11-24T06:30:21.790Z,9.27
2022-11-24T06:32:50.039Z,9.37
2022-11-24T06:35:17.509Z,9.23
2022-11-24T06:37:45.719Z,12.00
2022-11-24T06:40:12.880Z,9.30
2022-11-24T06:42:39.661Z,9.60
2022-11-24T06:45:09.345Z,9.33
2022-11-24T06:47:37.457Z,9.23
2022-11-24T06:50:05.072Z,9.30
2022-11-24T06:52:31.854Z,8.83
2022-11-24T06:54:58.686Z,9.67
2022-11-24T06:57:26.326Z,8.73
2022-11-24T06:59:53.151Z,9.60
2022-11-24T07:02:19.943Z,9.40
2022-11-24T07:04:46.745Z,9.43
2022-11-24T07:07:13.704Z,9.30
2022-11-24T07:09:40.527Z,9.70
2022-11-24T07:12:07.648Z,9.57
2022-11-24T07:14:34.703Z,8.60
2022-11-24T07:17:02.686Z,9.50
2022-11-24T07:19:29.676Z,9.87
2022-11-24T07:21:57.552Z,9.07
2022-11-24T07:24:24.445Z,9.93
2022-11-24T07:26:51.363Z,10.50
2022-11-24T07:29:18.338Z,10.47
2022-11-24T07:31:46.143Z,10.63
2022-11-24T07:34:15.637Z,10.60
2022-11-24T07:36:43.029Z,11.03
2022-11-24T07:39:10.005Z,11.07
2022-11-24T07:41:36.890Z,11.47
2022-11-24T07:44:04.022Z,10.93
2022-11-24T07:46:30.890Z,11.50
2022-11-24T07:48:57.775Z,12.03
2022-11-24T07:51:24.712Z,12.13
2022-11-24T07:53:51.499Z,11.90
2022-11-24T07:56:18.384Z,12.30
2022-11-24T07:58:49.671Z,11.23
2022-11-24T08:01:20.013Z,12.30
2022-11-24T08:03:47.206Z,12.53
2022-11-24T08:06:24.988Z,12.33
2022-11-24T08:08:53.260Z,13.10
2022-11-24T08:11:20.300Z,12.67
2022-11-24T08:13:47.266Z,11.87
2022-11-24T08:16:16.980Z,12.40
2022-11-24T08:18:48.535Z,12.57
2022-11-24T08:21:15.459Z,12.57
2022-11-24T08:23:42.736Z,12.57
2022-11-24T08:26:16.087Z,13.47
2022-11-24T08:28:46.016Z,12.63
2022-11-24T08:31:16.003Z,12.70
2022-11-24T08:33:43.570Z,14.10
2022-11-24T08:36:13.383Z,12.47
2022-11-24T08:38:40.880Z,11.80
2022-11-24T08:41:11.008Z,12.90
2022-11-24T08:43:38.577Z,12.03
2022-11-24T08:46:08.468Z,12.90
2022-11-24T08:48:36.204Z,13.10
2022-11-24T08:51:15.568Z,12.00
2022-11-24T08:53:43.532Z,11.50
2022-11-24T08:56:11.893Z,12.00
2022-11-24T08:58:41.800Z,11.83
2022-11-24T09:01:12.389Z,11.40
2022-11-24T09:03:46.342Z,11.87
2022-11-24T09:06:19.008Z,11.77
2022-11-24T09:08:46.136Z,12.10
2022-11-24T09:11:15.311Z,10.83
2022-11-24T09:13:43.371Z,12.33
2022-11-24T09:16:13.662Z,11.43
2022-11-24T09:18:40.828Z,10.90
2022-11-24T09:21:19.744Z,11.60
2022-11-24T09:23:49.042Z,11.17
2022-11-24T09:26:18.862Z,10.70
2022-11-24T09:28:48.993Z,11.47
2022-11-24T09:31:18.069Z,11.43
2022-11-24T09:33:45.483Z,10.80
2022-11-24T09:36:13.139Z,11.30
2022-11-24T09:38:42.369Z,10.83
2022-11-24T09:41:18.231Z,11.17
2022-11-24T09:44:06.408Z,10.77
2022-11-24T09:46:41.210Z,11.30
2022-11-24T09:49:14.677Z,10.93
2022-11-24T09:51:45.472Z,11.03
2022-11-24T09:54:18.726Z,11.23
2022-11-24T09:56:46.968Z,10.33
2022-11-24T09:59:22.553Z,10.40
2022-11-24T10:01:51.678Z,11.03
2022-11-24T10:04:25.962Z,10.97
2022-11-24T10:07:01.657Z,11.43
2022-11-24T10:09:48.887Z,10.80
2022-11-24T10:12:27.917Z,13.73
2022-11-24T10:14:57.869Z,11.40
2022-11-24T10:17:56.716Z,11.70
2022-11-24T10:20:41.162Z,10.37
2022-11-24T10:23:39.814Z,11.83
2022-11-24T10:26:39.471Z,11.57
2022-11-24T10:29:26.260Z,10.90
2022-11-24T10:31:56.464Z,11.37
2022-11-24T10:34:27.502Z,11.30
2022-11-24T10:37:26.394Z,11.13
2022-11-24T10:40:26.923Z,11.97
2022-11-24T10:42:58.299Z,11.27
2022-11-24T10:45:27.583Z,11.40
2022-11-24T10:47:54.640Z,11.60
2022-11-24T10:50:23.107Z,12.10
2022-11-24T10:53:19.246Z,11.70
2022-11-24T10:55:55.377Z,11.67
2022-11-24T10:58:26.894Z,11.20
2022-11-24T11:00:54.867Z,12.23
2022-11-24T11:03:27.235Z,12.53
2022-11-24T11:05:59.117Z,12.03
2022-11-24T11:08:33.874Z,12.17
2022-11-24T11:11:27.438Z,12.67
2022-11-24T11:14:02.915Z,11.60
2022-11-24T11:16:31.097Z,13.33
2022-11-24T11:18:58.457Z,11.63
2022-11-24T11:21:41.065Z,12.27
2022-11-24T11:24:17.023Z,11.60
2022-11-24T11:26:44.177Z,11.43
2022-11-24T11:35:13.657Z,12.97
2022-11-24T11:37:41.561Z,12.47
2022-11-24T11:40:16.931Z,13.57
2022-11-24T11:43:16.149Z,12.87
2022-11-24T11:45:46.261Z,13.20
2022-11-24T11:48:27.744Z,13.87
2022-11-24T11:51:23.369Z,12.97
2022-11-24T11:54:31.968Z,12.53
2022-11-24T11:57:07.109Z,11.30
2022-11-24T11:59:59.128Z,11.60
2022-11-24T12:02:59.778Z,11.67
2022-11-24T12:05:50.774Z,12.00
2022-11-24T12:09:19.159Z,11.00
2022-11-24T12:12:12.560Z,10.30
2022-11-24T12:15:10.754Z,11.23
2022-11-24T12:17:47.588Z,10.93
2022-11-24T12:20:28.548Z,11.03
2022-11-24T12:23:04.197Z,10.53
2022-11-24T12:25:57.145Z,10.53
2022-11-24T12:28:24.193Z,11.03
2022-11-24T12:31:14.516Z,10.57
2022-11-24T12:34:11.151Z,10.53
2022-11-24T12:37:15.726Z,11.03
2022-11-24T12:40:04.114Z,10.70
2022-11-24T12:43:00.822Z,10.20
2022-11-24T12:45:50.226Z,11.00
2022-11-24T12:48:26.517Z,10.33
2022-11-24T12:50:55.809Z,9.83
2022-11-24T12:53:27.230Z,10.20
2022-11-24T12:55:57.269Z,10.30
2022-11-24T12:58:58.217Z,10.57
2022-11-24T13:01:53.641Z,11.03
2022-11-24T13:04:49.783Z,10.70
2022-11-24T13:07:35.601Z,10.10
2022-11-24T13:10:57.957Z,10.20
2022-11-24T13:13:32.469Z,9.83
2022-11-24T13:18:52.658Z,12.93
2022-11-24T13:21:31.458Z,11.27
2022-11-24T13:24:01.375Z,11.50
2022-11-24T13:26:43.650Z,12.50
2022-11-24T13:29:28.935Z,11.17
2022-11-24T13:32:02.507Z,10.67
2022-11-24T13:34:42.747Z,11.40
2022-11-24T13:37:34.449Z,12.80
2022-11-24T13:40:22.992Z,12.20
2022-11-24T13:42:56.471Z,11.63
2022-11-24T13:45:42.502Z,11.87
2022-11-24T13:48:22.763Z,11.63
2022-11-24T13:50:49.794Z,11.77
2022-11-24T13:53:32.164Z,11.43
2022-11-24T13:56:03.316Z,11.40
2022-11-24T13:58:39.346Z,11.37
2022-11-24T14:01:17.601Z,10.97
2022-11-24T14:04:35.278Z,11.27
2022-11-24T14:07:09.154Z,12.30
2022-11-24T14:09:54.359Z,11.23
2022-11-24T14:12:23.836Z,11.13
2022-11-24T14:14:52.733Z,11.23
2022-11-24T14:17:23.150Z,11.30
2022-11-24T14:19:55.549Z,11.57
2022-11-24T14:22:26.564Z,10.50
2022-11-24T14:24:56.798Z,10.73
2022-11-24T14:27:29.996Z,11.20
2022-11-24T14:30:00.592Z,11.73
2022-11-24T14:32:28.129Z,12.13
2022-11-24T14:34:55.699Z,12.90
2022-11-24T14:37:24.838Z,13.13
2022-11-24T14:39:52.270Z,13.80
2022-11-24T14:42:22.244Z,14.17
2022-11-24T14:44:59.028Z,14.57
2022-11-24T14:47:33.004Z,12.83
2022-11-24T14:50:13.835Z,13.67
2022-11-24T14:52:59.827Z,12.80
2022-11-24T14:55:28.725Z,13.60
2022-11-24T14:57:59.051Z,12.90
2022-11-24T15:00:33.045Z,12.37
2022-11-24T15:03:05.910Z,13.40
2022-11-24T15:05:59.423Z,12.87
2022-11-24T15:08:31.606Z,12.57
2022-11-24T15:11:12.042Z,12.53
2022-11-24T15:13:53.633Z,12.87
2022-11-24T15:16:25.040Z,12.80
2022-11-24T15:22:33.620Z,12.40
2022-11-24T15:25:37.710Z,12.47
2022-11-24T15:28:33.126Z,13.87
2022-11-24T15:31:08.016Z,15.07
2022-11-24T15:33:58.177Z,15.03
2022-11-24T15:37:07.019Z,15.73
2022-11-24T15:39:46.855Z,18.37
2022-11-24T15:42:32.235Z,18.37
2022-11-24T15:45:10.745Z,18.93
2022-11-24T15:47:37.689Z,19.53
2022-11-24T15:50:04.936Z,19.60
2022-11-24T15:52:34.230Z,19.53
2022-11-24T15:55:01.407Z,19.90
2022-11-24T15:57:28.634Z,21.53
2022-11-24T15:59:55.575Z,20.47
2022-11-24T16:02:22.535Z,20.07
2022-11-24T16:04:49.887Z,19.80
2022-11-24T16:07:16.977Z,20.47
2022-11-24T16:09:44.203Z,20.07
2022-11-24T16:12:11.137Z,20.00
2022-11-24T16:14:38.275Z,20.20
2022-11-24T16:17:05.446Z,20.50
2022-11-24T16:19:35.088Z,20.53
2022-11-24T16:22:06.311Z,21.47
2022-11-24T16:24:33.335Z,20.23
2022-11-24T16:27:01.479Z,19.57
2022-11-24T16:29:28.324Z,20.23
2022-11-24T16:31:55.345Z,20.27
2022-11-24T16:34:22.253Z,20.50
2022-11-24T16:36:49.380Z,20.33
2022-11-24T16:39:16.186Z,21.03
2022-11-24T16:41:43.009Z,21.53
2022-11-24T16:44:09.852Z,21.60
2022-11-24T16:46:36.709Z,20.57
2022-11-24T16:49:04.468Z,20.97
2022-11-24T16:51:34.790Z,20.67
2022-11-24T16:54:02.677Z,20.80
2022-11-24T16:56:30.196Z,22.00
2022-11-24T16:58:57.255Z,21.33
2022-11-24T17:01:25.949Z,20.77
2022-11-24T17:03:52.970Z,19.67
2022-11-24T17:06:20.171Z,21.70
2022-11-24T17:08:47.877Z,21.07
2022-11-24T17:11:19.948Z,20.93
2022-11-24T17:13:49.145Z,20.97
2022-11-24T17:16:21.674Z,22.47
2022-11-24T17:18:49.309Z,22.30
2022-11-24T17:21:21.996Z,21.13
2022-11-24T17:23:56.341Z,21.57
2022-11-24T17:26:23.736Z,21.90
2022-11-24T17:28:50.781Z,21.83
2022-11-24T17:31:22.562Z,22.93
2022-11-24T17:33:50.683Z,21.77
2022-11-24T17:36:17.941Z,21.10
2022-11-24T17:38:44.881Z,21.50
2022-11-24T17:41:11.875Z,21.80
2022-11-24T17:43:38.781Z,21.03
2022-11-24T17:46:07.073Z,21.80
2022-11-24T17:48:35.421Z,19.97
2022-11-24T17:51:08.251Z,19.97
2022-11-24T17:53:39.276Z,20.50
2022-11-24T17:56:07.316Z,19.67
2022-11-24T17:58:39.685Z,20.70
2022-11-24T18:01:08.889Z,19.63
2022-11-24T18:03:36.051Z,20.27
2022-11-24T18:06:14.559Z,19.90
2022-11-24T18:08:43.773Z,20.17
2022-11-24T18:11:13.523Z,20.33
2022-11-24T18:14:00.261Z,19.80
2022-11-24T18:16:30.218Z,20.63
2022-11-24T18:19:14.626Z,20.47
2022-11-24T18:21:43.730Z,20.60
2022-11-24T18:24:11.680Z,20.17
2022-11-24T18:26:42.306Z,19.23
2022-11-24T18:29:10.669Z,19.97
2022-11-24T18:31:38.245Z,19.60
2022-11-24T18:34:06.049Z,20.70
2022-11-24T18:36:33.802Z,20.33
2022-11-24T18:39:04.881Z,20.17
2022-11-24T18:41:32.015Z,19.87
2022-11-24T18:44:02.399Z,20.97
2022-11-24T18:46:29.565Z,20.83
2022-11-24T18:48:56.677Z,19.60
2022-11-24T18:51:23.899Z,18.87
2022-11-24T18:53:54.686Z,19.73
2022-11-24T18:56:21.938Z,20.40
2022-11-24T18:58:56.062Z,21.33
2022-11-24T19:01:26.780Z,21.00
2022-11-24T19:04:01.365Z,20.80
2022-11-24T19:06:36.441Z,20.47
2022-11-24T19:09:07.105Z,20.63
2022-11-24T19:11:39.397Z,21.27
2022-11-24T19:14:08.342Z,20.57
2022-11-24T19:16:38.066Z,20.70
2022-11-24T19:19:05.619Z,19.77
2022-11-24T19:21:35.725Z,21.23
2022-11-24T19:24:05.582Z,20.50
2022-11-24T19:26:35.083Z,20.67
2022-11-24T19:29:03.427Z,19.87
2022-11-24T19:31:30.546Z,21.87
2022-11-24T19:33:59.935Z,21.87
2022-11-24T19:36:27.544Z,21.60
2022-11-24T19:38:56.842Z,21.90
2022-11-24T19:41:27.938Z,20.83
2022-11-24T19:43:55.071Z,22.97
2022-11-24T19:46:26.291Z,21.53
2022-11-24T19:49:03.496Z,21.30
2022-11-24T19:51:35.032Z,21.03
2022-11-24T19:54:03.238Z,20.27
2022-11-24T19:56:32.524Z,20.07
2022-11-24T19:58:59.791Z,18.93
2022-11-24T20:01:32.260Z,20.43
2022-11-24T20:04:05.838Z,18.30
2022-11-24T20:06:38.595Z,17.87
2022-11-24T20:09:08.087Z,18.00
2022-11-24T20:11:35.528Z,17.40
2022-11-24T20:14:03.138Z,17.50
2022-11-24T20:16:32.181Z,17.37
2022-11-24T20:19:01.725Z,18.03
2022-11-24T20:21:32.923Z,16.97
2022-11-24T20:24:03.910Z,18.10
2022-11-24T20:26:34.347Z,17.50
2022-11-24T20:29:01.908Z,18.07
2022-11-24T20:31:34.735Z,18.20
2022-11-24T20:34:03.590Z,19.13
2022-11-24T20:36:32.653Z,18.33
2022-11-24T20:39:01.393Z,19.17
2022-11-24T20:41:32.035Z,18.33
2022-11-24T20:44:03.894Z,19.43
2022-11-24T20:46:33.330Z,19.00
2022-11-24T20:49:01.119Z,19.47
2022-11-24T20:51:31.089Z,19.27
2022-11-24T20:54:04.484Z,18.80
2022-11-24T20:56:37.762Z,19.87
2022-11-24T20:59:19.051Z,18.40
2022-11-24T21:01:50.527Z,18.60
2022-11-24T21:04:31.879Z,16.37
2022-11-24T21:07:07.954Z,19.00
2022-11-24T21:09:40.067Z,19.13
2022-11-24T21:12:13.358Z,18.90
2022-11-24T21:14:43.251Z,18.93
2022-11-24T21:17:10.802Z,18.37
2022-11-24T21:20:06.437Z,18.00
2022-11-24T21:22:40.290Z,18.67
2022-11-24T21:25:18.628Z,18.90
2022-11-24T21:27:48.070Z,17.70
2022-11-24T21:30:17.625Z,17.27
2022-11-24T21:32:44.732Z,17.73
2022-11-24T21:35:11.769Z,18.13
2022-11-24T21:37:41.721Z,17.03
2022-11-24T21:40:09.015Z,16.70
2022-11-24T21:42:44.501Z,16.10
2022-11-24T21:45:25.040Z,16.87
2022-11-24T21:48:10.155Z,17.17
2022-11-24T21:50:49.252Z,16.53
2022-11-24T21:53:43.959Z,18.07
2022-11-24T21:56:34.621Z,16.60
2022-11-24T21:59:04.765Z,16.57
2022-11-24T22:01:35.300Z,16.23
2022-11-24T22:04:02.285Z,16.57
2022-11-24T22:06:29.510Z,17.23
2022-11-24T22:08:56.497Z,16.43
2022-11-24T22:11:55.148Z,16.40
2022-11-24T22:14:22.198Z,16.27
2022-11-24T22:16:52.757Z,17.20
2022-11-24T22:19:25.072Z,18.13
2022-11-24T22:21:52.120Z,19.40
2022-11-24T22:24:21.819Z,16.90
2022-11-24T22:26:52.698Z,17.90
2022-11-24T22:29:19.974Z,18.10
2022-11-24T22:31:48.441Z,17.73
2022-11-24T22:34:19.881Z,18.23
2022-11-24T22:36:47.100Z,17.10
2022-11-24T22:39:14.477Z,17.50
2022-11-24T22:41:41.554Z,18.30
2022-11-24T22:44:08.680Z,18.07
2022-11-24T22:46:35.539Z,18.23
2022-11-24T22:49:02.639Z,17.70
2022-11-24T22:51:34.664Z,18.97
2022-11-24T22:54:03.693Z,20.13
2022-11-24T22:56:32.555Z,17.87
2022-11-24T22:59:04.742Z,18.97
2022-11-24T23:01:33.914Z,19.30
2022-11-24T23:04:01.836Z,18.67
2022-11-24T23:06:30.940Z,20.87
2022-11-24T23:13:04.890Z,19.37
2022-11-24T23:16:23.262Z,19.03
2022-11-24T23:19:03.474Z,20.20
2022-11-24T23:21:36.360Z,19.67
2022-11-24T23:24:08.485Z,18.67
2022-11-24T23:26:57.705Z,18.40
2022-11-24T23:29:33.937Z,18.97
2022-11-24T23:32:03.412Z,18.37
2022-11-24T23:39:40.973Z,18.23
2022-11-24T23:42:43.063Z,18.13
2022-11-24T23:55:16.165Z,19.83
2022-11-24T23:57:43.378Z,19.37
